sensor_id;sensor_type;location;lat;lon;timestamp;temperature;humidity
39483;DHT22;25682;48.438;1.482;2022-12-05T00:02:19;18.50;57.30
39483;DHT22;25682;48.438;1.482;2022-12-05T00:04:45;18.50;57.20
39483;DHT22;25682;48.438;1.482;2022-12-05T00:07:10;18.40;57.10
39483;DHT22;25682;48.438;1.482;2022-12-05T00:09:36;18.40;57.10
39483;DHT22;25682;48.438;1.482;2022-12-05T00:12:01;18.40;57.10
39483;DHT22;25682;48.438;1.482;2022-12-05T00:14:27;18.40;57.00
39483;DHT22;25682;48.438;1.482;2022-12-05T00:16:52;18.40;57.00
39483;DHT22;25682;48.438;1.482;2022-12-05T00:19:18;18.40;57.00
39483;DHT22;25682;48.438;1.482;2022-12-05T00:21:43;18.40;57.00
39483;DHT22;25682;48.438;1.482;2022-12-05T00:24:10;18.40;57.00
39483;DHT22;25682;48.438;1.482;2022-12-05T00:26:37;18.40;57.00
39483;DHT22;25682;48.438;1.482;2022-12-05T00:29:02;18.40;56.90
39483;DHT22;25682;48.438;1.482;2022-12-05T00:31:28;18.40;56.90
39483;DHT22;25682;48.438;1.482;2022-12-05T00:33:54;18.40;56.90
39483;DHT22;25682;48.438;1.482;2022-12-05T00:36:20;18.30;56.80
39483;DHT22;25682;48.438;1.482;2022-12-05T00:38:46;18.30;56.80
39483;DHT22;25682;48.438;1.482;2022-12-05T00:41:13;18.30;56.70
39483;DHT22;25682;48.438;1.482;2022-12-05T00:43:39;18.30;56.70
39483;DHT22;25682;48.438;1.482;2022-12-05T00:46:05;18.30;56.70
39483;DHT22;25682;48.438;1.482;2022-12-05T00:48:31;18.30;56.70
39483;DHT22;25682;48.438;1.482;2022-12-05T00:51:04;18.30;56.60
39483;DHT22;25682;48.438;1.482;2022-12-05T00:53:30;18.30;56.70
39483;DHT22;25682;48.438;1.482;2022-12-05T00:56:00;18.30;56.60
39483;DHT22;25682;48.438;1.482;2022-12-05T00:58:25;18.30;56.50
39483;DHT22;25682;48.438;1.482;2022-12-05T01:00:51;18.30;56.50
39483;DHT22;25682;48.438;1.482;2022-12-05T01:03:16;18.30;56.50
39483;DHT22;25682;48.438;1.482;2022-12-05T01:05:42;18.30;56.50
39483;DHT22;25682;48.438;1.482;2022-12-05T01:08:07;18.30;56.40
39483;DHT22;25682;48.438;1.482;2022-12-05T01:10:33;18.30;56.40
39483;DHT22;25682;48.438;1.482;2022-12-05T01:12:58;18.20;56.30
39483;DHT22;25682;48.438;1.482;2022-12-05T01:15:24;18.20;56.30
39483;DHT22;25682;48.438;1.482;2022-12-05T01:17:49;18.20;56.30
39483;DHT22;25682;48.438;1.482;2022-12-05T01:20:15;18.30;57.00
39483;DHT22;25682;48.438;1.482;2022-12-05T01:22:40;18.20;56.20
39483;DHT22;25682;48.438;1.482;2022-12-05T01:25:06;18.20;56.20
39483;DHT22;25682;48.438;1.482;2022-12-05T01:27:31;18.20;56.20
39483;DHT22;25682;48.438;1.482;2022-12-05T01:29:57;18.20;56.20
39483;DHT22;25682;48.438;1.482;2022-12-05T01:32:22;18.20;56.10
39483;DHT22;25682;48.438;1.482;2022-12-05T01:34:48;18.20;56.10
39483;DHT22;25682;48.438;1.482;2022-12-05T01:37:13;18.20;56.10
39483;DHT22;25682;48.438;1.482;2022-12-05T01:39:39;18.20;56.10
39483;DHT22;25682;48.438;1.482;2022-12-05T01:42:04;18.20;56.10
39483;DHT22;25682;48.438;1.482;2022-12-05T01:46:56;18.20;56.30
39483;DHT22;25682;48.438;1.482;2022-12-05T01:49:25;18.10;55.90
39483;DHT22;25682;48.438;1.482;2022-12-05T01:52:03;18.20;55.90
39483;DHT22;25682;48.438;1.482;2022-12-05T01:54:30;18.20;55.90
39483;DHT22;25682;48.438;1.482;2022-12-05T01:57:00;18.10;55.80
39483;DHT22;25682;48.438;1.482;2022-12-05T01:59:27;18.20;55.90
39483;DHT22;25682;48.438;1.482;2022-12-05T02:01:53;18.10;55.80
39483;DHT22;25682;48.438;1.482;2022-12-05T02:04:18;18.10;55.70
39483;DHT22;25682;48.438;1.482;2022-12-05T02:06:44;18.10;55.80
39483;DHT22;25682;48.438;1.482;2022-12-05T02:09:10;18.10;55.70
39483;DHT22;25682;48.438;1.482;2022-12-05T02:11:37;18.10;55.70
39483;DHT22;25682;48.438;1.482;2022-12-05T02:24:50;18.10;55.60
39483;DHT22;25682;48.438;1.482;2022-12-05T02:27:22;18.10;55.50
39483;DHT22;25682;48.438;1.482;2022-12-05T02:30:01;18.10;55.50
39483;DHT22;25682;48.438;1.482;2022-12-05T02:37:27;18.10;55.40
39483;DHT22;25682;48.438;1.482;2022-12-05T02:47:12;18.00;54.80
39483;DHT22;25682;48.438;1.482;2022-12-05T02:49:39;18.10;55.30
39483;DHT22;25682;48.438;1.482;2022-12-05T02:52:06;18.00;55.20
39483;DHT22;25682;48.438;1.482;2022-12-05T02:54:34;18.00;55.20
39483;DHT22;25682;48.438;1.482;2022-12-05T02:57:00;18.00;55.20
39483;DHT22;25682;48.438;1.482;2022-12-05T02:59:26;18.00;55.10
39483;DHT22;25682;48.438;1.482;2022-12-05T03:01:52;18.00;55.10
39483;DHT22;25682;48.438;1.482;2022-12-05T03:04:18;18.00;55.10
39483;DHT22;25682;48.438;1.482;2022-12-05T03:06:46;18.00;55.10
39483;DHT22;25682;48.438;1.482;2022-12-05T03:09:15;18.00;55.10
39483;DHT22;25682;48.438;1.482;2022-12-05T03:11:44;18.00;55.10
39483;DHT22;25682;48.438;1.482;2022-12-05T03:14:12;18.00;55.10
39483;DHT22;25682;48.438;1.482;2022-12-05T03:16:43;18.00;55.10
39483;DHT22;25682;48.438;1.482;2022-12-05T03:19:11;18.00;55.00
39483;DHT22;25682;48.438;1.482;2022-12-05T03:21:57;18.00;55.00
39483;DHT22;25682;48.438;1.482;2022-12-05T03:24:23;18.00;55.00
39483;DHT22;25682;48.438;1.482;2022-12-05T03:26:55;18.00;54.90
39483;DHT22;25682;48.438;1.482;2022-12-05T03:29:30;18.00;54.90
39483;DHT22;25682;48.438;1.482;2022-12-05T03:36:57;18.00;54.80
39483;DHT22;25682;48.438;1.482;2022-12-05T03:39:27;17.90;54.70
39483;DHT22;25682;48.438;1.482;2022-12-05T03:41:59;18.00;54.80
39483;DHT22;25682;48.438;1.482;2022-12-05T03:46:56;18.00;54.80
39483;DHT22;25682;48.438;1.482;2022-12-05T03:49:33;18.00;54.70
39483;DHT22;25682;48.438;1.482;2022-12-05T03:52:08;18.00;54.70
39483;DHT22;25682;48.438;1.482;2022-12-05T03:54:44;18.00;54.70
39483;DHT22;25682;48.438;1.482;2022-12-05T03:57:12;18.00;54.60
39483;DHT22;25682;48.438;1.482;2022-12-05T03:59:53;18.00;54.60
39483;DHT22;25682;48.438;1.482;2022-12-05T04:02:23;18.00;54.60
39483;DHT22;25682;48.438;1.482;2022-12-05T04:04:59;18.00;54.50
39483;DHT22;25682;48.438;1.482;2022-12-05T04:07:25;18.00;54.50
39483;DHT22;25682;48.438;1.482;2022-12-05T04:09:54;18.00;54.50
39483;DHT22;25682;48.438;1.482;2022-12-05T04:12:21;18.00;54.40
39483;DHT22;25682;48.438;1.482;2022-12-05T04:14:49;18.00;54.50
39483;DHT22;25682;48.438;1.482;2022-12-05T04:22:28;18.10;54.60
39483;DHT22;25682;48.438;1.482;2022-12-05T04:24:54;18.10;54.60
39483;DHT22;25682;48.438;1.482;2022-12-05T04:27:41;18.10;54.50
39483;DHT22;25682;48.438;1.482;2022-12-05T04:30:12;18.20;54.50
39483;DHT22;25682;48.438;1.482;2022-12-05T04:32:40;18.20;54.60
39483;DHT22;25682;48.438;1.482;2022-12-05T04:35:18;18.30;54.70
39483;DHT22;25682;48.438;1.482;2022-12-05T04:37:46;18.20;54.70
39483;DHT22;25682;48.438;1.482;2022-12-05T04:40:18;18.30;54.80
39483;DHT22;25682;48.438;1.482;2022-12-05T04:42:44;18.30;54.80
39483;DHT22;25682;48.438;1.482;2022-12-05T04:45:10;18.30;54.90
39483;DHT22;25682;48.438;1.482;2022-12-05T04:47:41;18.30;54.90
39483;DHT22;25682;48.438;1.482;2022-12-05T04:50:08;18.30;54.80
39483;DHT22;25682;48.438;1.482;2022-12-05T04:52:35;18.30;54.80
39483;DHT22;25682;48.438;1.482;2022-12-05T04:55:09;18.30;54.80
39483;DHT22;25682;48.438;1.482;2022-12-05T04:57:39;18.30;54.70
39483;DHT22;25682;48.438;1.482;2022-12-05T05:00:06;18.30;54.70
39483;DHT22;25682;48.438;1.482;2022-12-05T05:02:42;18.30;54.70
39483;DHT22;25682;48.438;1.482;2022-12-05T05:05:09;18.30;54.60
39483;DHT22;25682;48.438;1.482;2022-12-05T05:07:42;18.30;54.60
39483;DHT22;25682;48.438;1.482;2022-12-05T05:10:09;18.30;54.60
39483;DHT22;25682;48.438;1.482;2022-12-05T05:12:36;18.40;54.60
39483;DHT22;25682;48.438;1.482;2022-12-05T05:15:02;18.30;54.60
39483;DHT22;25682;48.438;1.482;2022-12-05T05:17:27;18.30;54.60
39483;DHT22;25682;48.438;1.482;2022-12-05T05:19:53;18.30;54.60
39483;DHT22;25682;48.438;1.482;2022-12-05T05:22:38;18.40;54.60
39483;DHT22;25682;48.438;1.482;2022-12-05T05:25:03;18.40;54.70
39483;DHT22;25682;48.438;1.482;2022-12-05T05:27:29;18.40;54.70
39483;DHT22;25682;48.438;1.482;2022-12-05T05:29:54;18.40;54.70
39483;DHT22;25682;48.438;1.482;2022-12-05T05:32:20;18.40;54.70
39483;DHT22;25682;48.438;1.482;2022-12-05T05:34:45;18.40;54.70
39483;DHT22;25682;48.438;1.482;2022-12-05T05:37:11;18.40;54.80
39483;DHT22;25682;48.438;1.482;2022-12-05T05:39:36;18.40;54.80
39483;DHT22;25682;48.438;1.482;2022-12-05T05:42:02;18.40;54.80
39483;DHT22;25682;48.438;1.482;2022-12-05T05:44:27;18.40;54.70
39483;DHT22;25682;48.438;1.482;2022-12-05T05:46:53;18.40;54.70
39483;DHT22;25682;48.438;1.482;2022-12-05T05:49:19;18.50;54.30
39483;DHT22;25682;48.438;1.482;2022-12-05T05:51:44;18.50;54.40
39483;DHT22;25682;48.438;1.482;2022-12-05T05:54:09;18.50;54.40
39483;DHT22;25682;48.438;1.482;2022-12-05T05:56:35;18.50;54.40
39483;DHT22;25682;48.438;1.482;2022-12-05T05:59:01;18.50;54.40
39483;DHT22;25682;48.438;1.482;2022-12-05T06:01:27;18.50;54.40
39483;DHT22;25682;48.438;1.482;2022-12-05T06:03:52;18.50;54.10
39483;DHT22;25682;48.438;1.482;2022-12-05T06:06:18;18.50;54.00
39483;DHT22;25682;48.438;1.482;2022-12-05T06:08:44;18.60;54.00
39483;DHT22;25682;48.438;1.482;2022-12-05T06:11:14;18.60;53.90
39483;DHT22;25682;48.438;1.482;2022-12-05T06:13:40;18.60;54.00
39483;DHT22;25682;48.438;1.482;2022-12-05T06:16:06;18.60;54.20
39483;DHT22;25682;48.438;1.482;2022-12-05T06:18:32;18.60;54.30
39483;DHT22;25682;48.438;1.482;2022-12-05T06:20:57;18.60;54.40
39483;DHT22;25682;48.438;1.482;2022-12-05T06:23:23;18.60;54.50
39483;DHT22;25682;48.438;1.482;2022-12-05T06:25:49;18.60;54.60
39483;DHT22;25682;48.438;1.482;2022-12-05T06:28:15;18.70;54.60
39483;DHT22;25682;48.438;1.482;2022-12-05T06:30:41;18.70;54.70
39483;DHT22;25682;48.438;1.482;2022-12-05T06:33:06;18.70;54.70
39483;DHT22;25682;48.438;1.482;2022-12-05T06:35:32;18.70;54.60
39483;DHT22;25682;48.438;1.482;2022-12-05T06:37:57;18.70;54.70
39483;DHT22;25682;48.438;1.482;2022-12-05T06:40:23;18.70;54.90
39483;DHT22;25682;48.438;1.482;2022-12-05T06:42:48;18.70;54.90
39483;DHT22;25682;48.438;1.482;2022-12-05T06:45:14;18.70;54.90
39483;DHT22;25682;48.438;1.482;2022-12-05T06:47:39;18.70;54.90
39483;DHT22;25682;48.438;1.482;2022-12-05T06:50:05;18.70;54.90
39483;DHT22;25682;48.438;1.482;2022-12-05T06:52:31;18.70;54.80
39483;DHT22;25682;48.438;1.482;2022-12-05T06:54:56;18.70;54.80
39483;DHT22;25682;48.438;1.482;2022-12-05T06:57:24;18.70;54.80
39483;DHT22;25682;48.438;1.482;2022-12-05T06:59:49;18.70;54.80
39483;DHT22;25682;48.438;1.482;2022-12-05T07:02:15;18.70;54.70
39483;DHT22;25682;48.438;1.482;2022-12-05T07:04:40;18.70;54.70
39483;DHT22;25682;48.438;1.482;2022-12-05T07:07:06;18.70;54.70
39483;DHT22;25682;48.438;1.482;2022-12-05T07:09:31;18.70;54.70
39483;DHT22;25682;48.438;1.482;2022-12-05T07:12:17;18.70;54.60
39483;DHT22;25682;48.438;1.482;2022-12-05T07:14:43;18.70;54.60
39483;DHT22;25682;48.438;1.482;2022-12-05T07:17:09;18.70;54.60
39483;DHT22;25682;48.438;1.482;2022-12-05T07:19:35;18.70;54.50
39483;DHT22;25682;48.438;1.482;2022-12-05T07:22:00;18.70;54.60
39483;DHT22;25682;48.438;1.482;2022-12-05T07:24:26;18.70;54.50
39483;DHT22;25682;48.438;1.482;2022-12-05T07:26:51;18.70;54.50
39483;DHT22;25682;48.438;1.482;2022-12-05T07:29:17;18.70;54.40
39483;DHT22;25682;48.438;1.482;2022-12-05T07:31:43;18.70;54.40
39483;DHT22;25682;48.438;1.482;2022-12-05T07:34:08;18.70;54.40
39483;DHT22;25682;48.438;1.482;2022-12-05T07:36:34;18.70;54.40
39483;DHT22;25682;48.438;1.482;2022-12-05T07:38:59;18.70;54.40
39483;DHT22;25682;48.438;1.482;2022-12-05T07:41:26;18.70;54.30
39483;DHT22;25682;48.438;1.482;2022-12-05T07:43:52;18.70;54.20
39483;DHT22;25682;48.438;1.482;2022-12-05T07:46:18;18.70;54.20
39483;DHT22;25682;48.438;1.482;2022-12-05T07:48:43;18.70;54.10
39483;DHT22;25682;48.438;1.482;2022-12-05T07:51:09;18.70;54.00
39483;DHT22;25682;48.438;1.482;2022-12-05T07:53:35;18.80;54.10
39483;DHT22;25682;48.438;1.482;2022-12-05T07:56:02;18.80;53.90
39483;DHT22;25682;48.438;1.482;2022-12-05T07:58:28;18.80;54.00
39483;DHT22;25682;48.438;1.482;2022-12-05T08:00:54;18.80;54.10
39483;DHT22;25682;48.438;1.482;2022-12-05T08:03:22;18.80;54.30
39483;DHT22;25682;48.438;1.482;2022-12-05T08:05:47;18.80;54.40
39483;DHT22;25682;48.438;1.482;2022-12-05T08:08:13;18.80;54.40
39483;DHT22;25682;48.438;1.482;2022-12-05T08:10:38;18.80;54.20
39483;DHT22;25682;48.438;1.482;2022-12-05T08:13:04;18.80;54.40
39483;DHT22;25682;48.438;1.482;2022-12-05T08:15:29;18.90;54.50
39483;DHT22;25682;48.438;1.482;2022-12-05T08:17:55;18.80;54.50
39483;DHT22;25682;48.438;1.482;2022-12-05T08:20:21;18.80;54.40
39483;DHT22;25682;48.438;1.482;2022-12-05T08:22:46;18.80;54.40
39483;DHT22;25682;48.438;1.482;2022-12-05T08:25:11;18.80;54.30
39483;DHT22;25682;48.438;1.482;2022-12-05T08:27:37;18.80;54.30
39483;DHT22;25682;48.438;1.482;2022-12-05T08:30:03;18.80;54.30
39483;DHT22;25682;48.438;1.482;2022-12-05T08:32:28;18.80;54.40
39483;DHT22;25682;48.438;1.482;2022-12-05T08:34:54;18.80;54.40
39483;DHT22;25682;48.438;1.482;2022-12-05T08:37:19;18.80;54.50
39483;DHT22;25682;48.438;1.482;2022-12-05T08:39:45;18.80;54.40
39483;DHT22;25682;48.438;1.482;2022-12-05T08:42:10;18.80;54.30
39483;DHT22;25682;48.438;1.482;2022-12-05T08:44:36;18.80;54.30
39483;DHT22;25682;48.438;1.482;2022-12-05T08:47:01;18.80;54.30
39483;DHT22;25682;48.438;1.482;2022-12-05T08:49:27;18.80;54.30
39483;DHT22;25682;48.438;1.482;2022-12-05T08:51:52;18.80;54.40
39483;DHT22;25682;48.438;1.482;2022-12-05T08:54:18;18.80;54.30
39483;DHT22;25682;48.438;1.482;2022-12-05T08:56:43;18.80;54.20
39483;DHT22;25682;48.438;1.482;2022-12-05T08:59:09;18.80;54.90
39483;DHT22;25682;48.438;1.482;2022-12-05T09:01:35;18.80;54.20
39483;DHT22;25682;48.438;1.482;2022-12-05T09:04:03;18.80;54.20
39483;DHT22;25682;48.438;1.482;2022-12-05T09:06:30;18.80;54.10
39483;DHT22;25682;48.438;1.482;2022-12-05T09:08:57;18.80;54.10
39483;DHT22;25682;48.438;1.482;2022-12-05T09:11:24;18.80;54.10
39483;DHT22;25682;48.438;1.482;2022-12-05T09:13:50;18.80;54.10
39483;DHT22;25682;48.438;1.482;2022-12-05T09:16:17;18.80;54.10
39483;DHT22;25682;48.438;1.482;2022-12-05T09:18:43;18.80;54.00
39483;DHT22;25682;48.438;1.482;2022-12-05T09:21:10;18.80;53.90
39483;DHT22;25682;48.438;1.482;2022-12-05T09:23:35;18.80;53.90
39483;DHT22;25682;48.438;1.482;2022-12-05T09:26:01;18.80;53.90
39483;DHT22;25682;48.438;1.482;2022-12-05T09:28:27;18.80;53.80
39483;DHT22;25682;48.438;1.482;2022-12-05T09:30:57;18.80;53.80
39483;DHT22;25682;48.438;1.482;2022-12-05T09:33:23;18.80;53.80
39483;DHT22;25682;48.438;1.482;2022-12-05T09:35:49;18.80;53.80
39483;DHT22;25682;48.438;1.482;2022-12-05T09:38:14;18.70;53.60
39483;DHT22;25682;48.438;1.482;2022-12-05T09:40:40;18.80;53.70
39483;DHT22;25682;48.438;1.482;2022-12-05T09:43:07;18.80;53.60
39483;DHT22;25682;48.438;1.482;2022-12-05T09:45:39;18.80;53.60
39483;DHT22;25682;48.438;1.482;2022-12-05T09:48:12;18.80;53.60
39483;DHT22;25682;48.438;1.482;2022-12-05T09:50:57;18.80;53.50
39483;DHT22;25682;48.438;1.482;2022-12-05T09:55:54;18.80;53.40
39483;DHT22;25682;48.438;1.482;2022-12-05T09:58:54;18.80;53.30
39483;DHT22;25682;48.438;1.482;2022-12-05T10:03:41;18.80;53.20
39483;DHT22;25682;48.438;1.482;2022-12-05T10:11:54;18.80;53.10
39483;DHT22;25682;48.438;1.482;2022-12-05T10:16:36;18.80;53.00
39483;DHT22;25682;48.438;1.482;2022-12-05T10:19:13;18.80;52.90
39483;DHT22;25682;48.438;1.482;2022-12-05T10:24:12;18.80;52.80
39483;DHT22;25682;48.438;1.482;2022-12-05T10:29:52;18.80;52.70
39483;DHT22;25682;48.438;1.482;2022-12-05T10:32:02;18.80;52.70
39483;DHT22;25682;48.438;1.482;2022-12-05T10:34:30;18.80;52.60
39483;DHT22;25682;48.438;1.482;2022-12-05T10:37:00;18.80;52.60
39483;DHT22;25682;48.438;1.482;2022-12-05T10:39:26;18.80;52.60
39483;DHT22;25682;48.438;1.482;2022-12-05T10:41:52;18.80;52.50
39483;DHT22;25682;48.438;1.482;2022-12-05T10:44:18;18.80;52.50
39483;DHT22;25682;48.438;1.482;2022-12-05T10:46:44;18.80;52.50
39483;DHT22;25682;48.438;1.482;2022-12-05T10:49:10;18.80;52.40
39483;DHT22;25682;48.438;1.482;2022-12-05T10:51:36;18.80;52.40
39483;DHT22;25682;48.438;1.482;2022-12-05T10:54:05;18.80;53.00
39483;DHT22;25682;48.438;1.482;2022-12-05T10:56:39;18.80;52.30
39483;DHT22;25682;48.438;1.482;2022-12-05T10:59:06;18.80;52.20
39483;DHT22;25682;48.438;1.482;2022-12-05T11:01:32;18.80;52.20
39483;DHT22;25682;48.438;1.482;2022-12-05T11:03:59;18.80;52.20
39483;DHT22;25682;48.438;1.482;2022-12-05T11:06:26;18.90;52.20
39483;DHT22;25682;48.438;1.482;2022-12-05T11:08:53;18.90;52.10
39483;DHT22;25682;48.438;1.482;2022-12-05T11:11:28;18.90;52.10
39483;DHT22;25682;48.438;1.482;2022-12-05T11:14:01;18.90;52.10
39483;DHT22;25682;48.438;1.482;2022-12-05T11:16:31;18.80;52.00
39483;DHT22;25682;48.438;1.482;2022-12-05T11:21:41;18.90;51.80
39483;DHT22;25682;48.438;1.482;2022-12-05T11:24:19;18.80;51.70
39483;DHT22;25682;48.438;1.482;2022-12-05T11:26:45;18.90;51.80
39483;DHT22;25682;48.438;1.482;2022-12-05T11:29:27;18.90;52.20
39483;DHT22;25682;48.438;1.482;2022-12-05T11:31:53;18.80;52.70
39483;DHT22;25682;48.438;1.482;2022-12-05T11:34:29;18.80;53.00
39483;DHT22;25682;48.438;1.482;2022-12-05T11:36:57;18.80;53.40
39483;DHT22;25682;48.438;1.482;2022-12-05T11:39:23;18.80;53.70
39483;DHT22;25682;48.438;1.482;2022-12-05T11:42:02;18.80;53.90
39483;DHT22;25682;48.438;1.482;2022-12-05T11:47:24;18.90;53.70
39483;DHT22;25682;48.438;1.482;2022-12-05T11:55:15;18.90;54.20
39483;DHT22;25682;48.438;1.482;2022-12-05T12:05:17;18.90;54.10
39483;DHT22;25682;48.438;1.482;2022-12-05T12:20:42;18.80;54.60
39483;DHT22;25682;48.438;1.482;2022-12-05T12:25:46;18.90;55.10
39483;DHT22;25682;48.438;1.482;2022-12-05T12:31:15;18.90;55.50
39483;DHT22;25682;48.438;1.482;2022-12-05T12:33:45;18.90;55.60
39483;DHT22;25682;48.438;1.482;2022-12-05T12:36:24;18.90;55.80
39483;DHT22;25682;48.438;1.482;2022-12-05T12:38:54;18.90;56.00
39483;DHT22;25682;48.438;1.482;2022-12-05T12:41:31;18.90;56.00
39483;DHT22;25682;48.438;1.482;2022-12-05T12:46:38;18.90;56.10
39483;DHT22;25682;48.438;1.482;2022-12-05T12:49:28;19.00;56.10
39483;DHT22;25682;48.438;1.482;2022-12-05T12:52:02;19.00;56.10
39483;DHT22;25682;48.438;1.482;2022-12-05T13:04:49;19.00;56.10
39483;DHT22;25682;48.438;1.482;2022-12-05T13:08:00;19.00;56.20
39483;DHT22;25682;48.438;1.482;2022-12-05T13:10:02;19.00;56.20
39483;DHT22;25682;48.438;1.482;2022-12-05T13:12:30;19.00;56.20
39483;DHT22;25682;48.438;1.482;2022-12-05T13:15:00;19.10;56.20
39483;DHT22;25682;48.438;1.482;2022-12-05T13:17:26;19.10;56.20
39483;DHT22;25682;48.438;1.482;2022-12-05T13:19:53;19.00;56.20
39483;DHT22;25682;48.438;1.482;2022-12-05T13:22:19;19.00;56.10
39483;DHT22;25682;48.438;1.482;2022-12-05T13:24:46;19.10;56.20
39483;DHT22;25682;48.438;1.482;2022-12-05T13:27:15;19.10;56.20
39483;DHT22;25682;48.438;1.482;2022-12-05T13:29:42;19.00;56.30
39483;DHT22;25682;48.438;1.482;2022-12-05T13:32:23;19.00;56.30
39483;DHT22;25682;48.438;1.482;2022-12-05T13:34:49;19.10;56.20
39483;DHT22;25682;48.438;1.482;2022-12-05T13:40:02;19.10;56.30
39483;DHT22;25682;48.438;1.482;2022-12-05T13:42:46;19.10;56.40
39483;DHT22;25682;48.438;1.482;2022-12-05T13:45:16;19.10;56.50
39483;DHT22;25682;48.438;1.482;2022-12-05T13:47:53;19.10;56.70
39483;DHT22;25682;48.438;1.482;2022-12-05T13:50:26;19.10;56.50
39483;DHT22;25682;48.438;1.482;2022-12-05T13:52:54;19.10;56.60
39483;DHT22;25682;48.438;1.482;2022-12-05T13:55:25;19.10;56.50
39483;DHT22;25682;48.438;1.482;2022-12-05T13:57:55;19.10;56.60
39483;DHT22;25682;48.438;1.482;2022-12-05T14:00:25;19.10;56.60
39483;DHT22;25682;48.438;1.482;2022-12-05T14:02:52;19.10;56.60
39483;DHT22;25682;48.438;1.482;2022-12-05T14:10:22;19.10;56.40
39483;DHT22;25682;48.438;1.482;2022-12-05T14:15:41;19.20;56.50
39483;DHT22;25682;48.438;1.482;2022-12-05T14:33:39;19.10;57.50
39483;DHT22;25682;48.438;1.482;2022-12-05T14:36:06;19.10;57.60
39483;DHT22;25682;48.438;1.482;2022-12-05T14:38:33;19.20;57.60
39483;DHT22;25682;48.438;1.482;2022-12-05T14:41:15;19.20;57.60
39483;DHT22;25682;48.438;1.482;2022-12-05T14:43:41;19.20;57.60
39483;DHT22;25682;48.438;1.482;2022-12-05T14:46:13;19.20;57.70
39483;DHT22;25682;48.438;1.482;2022-12-05T14:48:43;19.30;57.80
39483;DHT22;25682;48.438;1.482;2022-12-05T14:54:02;19.20;57.70
39483;DHT22;25682;48.438;1.482;2022-12-05T14:56:30;19.20;57.80
39483;DHT22;25682;48.438;1.482;2022-12-05T14:59:04;19.20;57.90
39483;DHT22;25682;48.438;1.482;2022-12-05T15:06:26;19.30;57.90
39483;DHT22;25682;48.438;1.482;2022-12-05T15:08:54;19.30;57.90
39483;DHT22;25682;48.438;1.482;2022-12-05T15:11:20;19.30;57.80
39483;DHT22;25682;48.438;1.482;2022-12-05T15:16:37;19.30;57.80
39483;DHT22;25682;48.438;1.482;2022-12-05T15:19:04;19.30;57.90
39483;DHT22;25682;48.438;1.482;2022-12-05T15:24:16;19.40;57.50
39483;DHT22;25682;48.438;1.482;2022-12-05T15:26:48;19.40;57.60
39483;DHT22;25682;48.438;1.482;2022-12-05T15:31:53;19.40;57.50
39483;DHT22;25682;48.438;1.482;2022-12-05T15:37:01;19.40;57.50
39483;DHT22;25682;48.438;1.482;2022-12-05T15:39:28;19.40;57.40
39483;DHT22;25682;48.438;1.482;2022-12-05T15:41:55;19.40;57.40
39483;DHT22;25682;48.438;1.482;2022-12-05T15:44:21;19.40;57.30
39483;DHT22;25682;48.438;1.482;2022-12-05T15:46:51;19.40;57.20
39483;DHT22;25682;48.438;1.482;2022-12-05T15:49:21;19.40;57.00
39483;DHT22;25682;48.438;1.482;2022-12-05T15:51:48;19.40;57.10
39483;DHT22;25682;48.438;1.482;2022-12-05T15:54:16;19.50;57.00
39483;DHT22;25682;48.438;1.482;2022-12-05T15:57:05;19.50;57.10
39483;DHT22;25682;48.438;1.482;2022-12-05T15:59:48;19.50;57.10
39483;DHT22;25682;48.438;1.482;2022-12-05T16:02:21;19.50;56.90
39483;DHT22;25682;48.438;1.482;2022-12-05T16:04:48;19.50;56.80
39483;DHT22;25682;48.438;1.482;2022-12-05T16:07:15;19.50;56.70
39483;DHT22;25682;48.438;1.482;2022-12-05T16:09:41;19.50;56.60
39483;DHT22;25682;48.438;1.482;2022-12-05T16:12:17;19.60;56.60
39483;DHT22;25682;48.438;1.482;2022-12-05T16:14:43;19.60;56.50
39483;DHT22;25682;48.438;1.482;2022-12-05T16:17:13;19.60;56.40
39483;DHT22;25682;48.438;1.482;2022-12-05T16:19:40;19.60;56.60
39483;DHT22;25682;48.438;1.482;2022-12-05T16:22:07;19.60;56.80
39483;DHT22;25682;48.438;1.482;2022-12-05T16:24:38;19.70;56.90
39483;DHT22;25682;48.438;1.482;2022-12-05T16:27:14;19.60;56.80
39483;DHT22;25682;48.438;1.482;2022-12-05T16:29:41;19.70;56.90
39483;DHT22;25682;48.438;1.482;2022-12-05T16:32:20;19.70;56.70
39483;DHT22;25682;48.438;1.482;2022-12-05T16:34:47;19.70;56.50
39483;DHT22;25682;48.438;1.482;2022-12-05T16:37:16;19.80;56.20
39483;DHT22;25682;48.438;1.482;2022-12-05T16:39:43;20.00;56.00
39483;DHT22;25682;48.438;1.482;2022-12-05T16:42:28;20.00;55.80
39483;DHT22;25682;48.438;1.482;2022-12-05T16:44:57;19.90;56.00
39483;DHT22;25682;48.438;1.482;2022-12-05T16:50:24;19.90;56.00
39483;DHT22;25682;48.438;1.482;2022-12-05T16:52:49;19.90;56.20
39483;DHT22;25682;48.438;1.482;2022-12-05T16:55:15;19.90;56.10
39483;DHT22;25682;48.438;1.482;2022-12-05T16:57:41;19.90;56.00
39483;DHT22;25682;48.438;1.482;2022-12-05T17:00:12;19.90;56.20
39483;DHT22;25682;48.438;1.482;2022-12-05T17:02:38;19.80;56.30
39483;DHT22;25682;48.438;1.482;2022-12-05T17:05:05;19.80;56.40
39483;DHT22;25682;48.438;1.482;2022-12-05T17:07:36;19.70;56.50
39483;DHT22;25682;48.438;1.482;2022-12-05T17:10:02;19.80;56.60
39483;DHT22;25682;48.438;1.482;2022-12-05T17:12:27;19.70;56.60
39483;DHT22;25682;48.438;1.482;2022-12-05T17:14:53;19.80;56.70
39483;DHT22;25682;48.438;1.482;2022-12-05T17:17:18;19.70;56.80
39483;DHT22;25682;48.438;1.482;2022-12-05T17:19:44;19.80;56.90
39483;DHT22;25682;48.438;1.482;2022-12-05T17:22:10;19.70;57.00
39483;DHT22;25682;48.438;1.482;2022-12-05T17:24:36;19.70;57.60
39483;DHT22;25682;48.438;1.482;2022-12-05T17:27:04;19.70;57.00
39483;DHT22;25682;48.438;1.482;2022-12-05T17:29:29;19.70;57.10
39483;DHT22;25682;48.438;1.482;2022-12-05T17:31:55;19.70;57.20
39483;DHT22;25682;48.438;1.482;2022-12-05T17:34:21;19.70;57.40
39483;DHT22;25682;48.438;1.482;2022-12-05T17:36:47;19.70;57.40
39483;DHT22;25682;48.438;1.482;2022-12-05T17:39:12;19.70;57.50
39483;DHT22;25682;48.438;1.482;2022-12-05T17:41:38;19.70;57.50
39483;DHT22;25682;48.438;1.482;2022-12-05T17:44:04;19.70;57.50
39483;DHT22;25682;48.438;1.482;2022-12-05T17:46:30;19.80;57.60
39483;DHT22;25682;48.438;1.482;2022-12-05T17:48:56;19.70;57.60
39483;DHT22;25682;48.438;1.482;2022-12-05T17:51:22;19.70;57.50
39483;DHT22;25682;48.438;1.482;2022-12-05T17:53:47;19.70;57.40
39483;DHT22;25682;48.438;1.482;2022-12-05T17:56:13;19.80;57.40
39483;DHT22;25682;48.438;1.482;2022-12-05T17:58:39;19.70;57.30
39483;DHT22;25682;48.438;1.482;2022-12-05T18:01:05;19.80;57.40
39483;DHT22;25682;48.438;1.482;2022-12-05T18:03:30;19.70;57.40
39483;DHT22;25682;48.438;1.482;2022-12-05T18:05:56;19.70;57.50
39483;DHT22;25682;48.438;1.482;2022-12-05T18:08:21;19.70;57.50
39483;DHT22;25682;48.438;1.482;2022-12-05T18:10:48;19.70;57.40